Crawford, NE (69339)

5:08 PM MST on February 28, 2015 (GMT -0700)
Deadman | Change Station
CLOSE
Current Station
Personal Weather Station
Location: Crawford, NE
Elevation: 4180 ft
Nearby Weather Stations

Elev 4180 ft 42.58 °N, 103.47 °W | Updated 9 seconds ago

Clear
Clear
25.3 °F
Feels Like 25 °F
N
0.0
Wind Variable Wind from WNW
Gusts 2.2 mph

Today
High -- | Low -- °F
--% Chance of Precip.
Yesterday
High -- | Low -- °F
Precip. -- in
6:31 AM 5:41 PM
Waxing Gibbous, 81% visible
Pressure 30.25 in
Visibility 10.0 miles
Clouds Clear
Windchill 25 °F
Dew Point 13 °F
Humidity 60%
Rainfall 0.00 in
Snow Depth Not available.
UV 0 out of 12
Pollen .50 out of 12
Air Quality Not available.
Flu Activity Not available.
METAR KCDR 282353Z AUTO 17004KT 10SM CLR M02/M11 A3007 RMK AO2 SLP241 T10171106 11017 21050 55004

More Conditions Fewer Conditions

Pressure 30.25 in
Visibility 10.0 miles
Clouds Clear
Windchill 25 °F
Dew Point 13 °F
Humidity 60%
Rainfall 0.00 in
Snow Depth Not available.
UV 0 out of 12
Pollen .50 out of 12
Air Quality Not available.
Flu Activity Not available.
METAR KCDR 282353Z AUTO 17004KT 10SM CLR M02/M11 A3007 RMK AO2 SLP241 T10171106 11017 21050 55004

More Conditions Fewer Conditions

10-Day Weather Forecast

Almanac

Astronomy

Feb. 28, 2015 Rise Set
Actual Time
Civil Twilight
Nautical Twilight
Astronomical Twilight
Moon
Length of Visible Light
Length of Day
Tomorrow will be .
, % of the Moon is Illuminated

Today's Extremes

State Highs State Lows

Community

WunderPhotos

Upload Photos

1,801,176 photos uploaded!

WunderBlogs® & News

Nearby

Air Quality

  Air Quality AQ Index Pollutant
Not available.

Snow Depth

Station Depth Elevation

Earthquake Activity

City Distance Mag. Time & Date
Minimum magnitude displayed is 2.5.

Coastal Water Temperatures

Place Temperature

Nearby Weather Stations